sensor_id;sensor_type;location;lat;lon;timestamp;P1;durP1;ratioP1;P2;durP2;ratioP2
69847;SDS011;57143;55.940;37.496;2023-05-10T00:01:08;10.15;;;3.35;;
69847;SDS011;57143;55.940;37.496;2023-05-10T00:03:35;10.75;;;3.50;;
69847;SDS011;57143;55.940;37.496;2023-05-10T00:06:02;9.87;;;3.67;;
69847;SDS011;57143;55.940;37.496;2023-05-10T00:08:31;9.65;;;3.28;;
69847;SDS011;57143;55.940;37.496;2023-05-10T00:10:58;14.63;;;4.35;;
69847;SDS011;57143;55.940;37.496;2023-05-10T00:13:25;9.00;;;3.78;;
69847;SDS011;57143;55.940;37.496;2023-05-10T00:15:52;12.13;;;3.97;;
69847;SDS011;57143;55.940;37.496;2023-05-10T00:18:19;11.47;;;3.70;;
69847;SDS011;57143;55.940;37.496;2023-05-10T00:20:47;13.73;;;3.80;;
69847;SDS011;57143;55.940;37.496;2023-05-10T00:23:14;12.38;;;3.20;;
69847;SDS011;57143;55.940;37.496;2023-05-10T00:25:43;8.32;;;2.88;;
69847;SDS011;57143;55.940;37.496;2023-05-10T00:28:10;10.05;;;3.22;;
69847;SDS011;57143;55.940;37.496;2023-05-10T00:30:37;8.87;;;3.03;;
69847;SDS011;57143;55.940;37.496;2023-05-10T00:33:05;9.73;;;3.03;;
69847;SDS011;57143;55.940;37.496;2023-05-10T00:35:32;7.88;;;3.08;;
69847;SDS011;57143;55.940;37.496;2023-05-10T00:37:59;9.88;;;2.78;;
69847;SDS011;57143;55.940;37.496;2023-05-10T00:40:26;10.07;;;3.10;;
69847;SDS011;57143;55.940;37.496;2023-05-10T00:42:55;9.70;;;3.20;;
69847;SDS011;57143;55.940;37.496;2023-05-10T00:45:22;8.10;;;2.83;;
69847;SDS011;57143;55.940;37.496;2023-05-10T00:47:50;7.20;;;2.90;;
69847;SDS011;57143;55.940;37.496;2023-05-10T00:50:20;9.05;;;2.80;;
69847;SDS011;57143;55.940;37.496;2023-05-10T00:52:47;7.32;;;2.90;;
69847;SDS011;57143;55.940;37.496;2023-05-10T00:55:15;7.93;;;2.67;;
69847;SDS011;57143;55.940;37.496;2023-05-10T00:57:42;7.95;;;3.10;;
69847;SDS011;57143;55.940;37.496;2023-05-10T01:00:12;10.52;;;2.97;;
69847;SDS011;57143;55.940;37.496;2023-05-10T01:02:43;9.45;;;3.40;;
69847;SDS011;57143;55.940;37.496;2023-05-10T01:05:11;9.50;;;3.00;;
69847;SDS011;57143;55.940;37.496;2023-05-10T01:07:38;8.70;;;3.07;;
69847;SDS011;57143;55.940;37.496;2023-05-10T01:10:06;10.32;;;3.60;;
69847;SDS011;57143;55.940;37.496;2023-05-10T01:12:35;9.15;;;2.83;;
69847;SDS011;57143;55.940;37.496;2023-05-10T01:15:05;8.30;;;3.17;;
69847;SDS011;57143;55.940;37.496;2023-05-10T01:17:36;11.48;;;3.35;;
69847;SDS011;57143;55.940;37.496;2023-05-10T01:20:06;12.13;;;3.00;;
69847;SDS011;57143;55.940;37.496;2023-05-10T01:25:43;9.25;;;3.42;;
69847;SDS011;57143;55.940;37.496;2023-05-10T01:28:39;9.25;;;3.33;;
69847;SDS011;57143;55.940;37.496;2023-05-10T01:31:33;8.45;;;3.38;;
69847;SDS011;57143;55.940;37.496;2023-05-10T01:34:25;9.23;;;3.30;;
69847;SDS011;57143;55.940;37.496;2023-05-10T01:36:59;12.57;;;3.35;;
69847;SDS011;57143;55.940;37.496;2023-05-10T01:39:32;10.45;;;3.08;;
69847;SDS011;57143;55.940;37.496;2023-05-10T01:42:11;8.82;;;3.10;;
69847;SDS011;57143;55.940;37.496;2023-05-10T01:44:45;14.15;;;3.38;;
69847;SDS011;57143;55.940;37.496;2023-05-10T01:47:25;7.87;;;2.93;;
69847;SDS011;57143;55.940;37.496;2023-05-10T01:49:59;8.18;;;3.38;;
69847;SDS011;57143;55.940;37.496;2023-05-10T01:52:31;9.50;;;3.50;;
69847;SDS011;57143;55.940;37.496;2023-05-10T01:55:01;7.68;;;2.75;;
69847;SDS011;57143;55.940;37.496;2023-05-10T01:57:32;9.38;;;2.97;;
69847;SDS011;57143;55.940;37.496;2023-05-10T02:00:02;9.17;;;2.93;;
69847;SDS011;57143;55.940;37.496;2023-05-10T02:02:31;7.63;;;3.30;;
69847;SDS011;57143;55.940;37.496;2023-05-10T02:05:05;9.15;;;3.00;;
69847;SDS011;57143;55.940;37.496;2023-05-10T02:07:34;9.82;;;3.72;;
69847;SDS011;57143;55.940;37.496;2023-05-10T02:10:03;8.18;;;3.08;;
69847;SDS011;57143;55.940;37.496;2023-05-10T02:12:34;11.90;;;3.50;;
69847;SDS011;57143;55.940;37.496;2023-05-10T02:15:03;10.90;;;3.10;;
69847;SDS011;57143;55.940;37.496;2023-05-10T02:17:33;9.85;;;3.80;;
69847;SDS011;57143;55.940;37.496;2023-05-10T02:20:02;9.52;;;3.15;;
69847;SDS011;57143;55.940;37.496;2023-05-10T02:22:32;10.13;;;3.30;;
69847;SDS011;57143;55.940;37.496;2023-05-10T02:25:02;8.37;;;3.27;;
69847;SDS011;57143;55.940;37.496;2023-05-10T02:27:30;11.95;;;3.78;;
69847;SDS011;57143;55.940;37.496;2023-05-10T02:29:58;12.93;;;4.22;;
69847;SDS011;57143;55.940;37.496;2023-05-10T02:32:26;9.18;;;3.80;;
69847;SDS011;57143;55.940;37.496;2023-05-10T02:34:55;11.63;;;3.17;;
69847;SDS011;57143;55.940;37.496;2023-05-10T02:37:25;12.17;;;3.43;;
69847;SDS011;57143;55.940;37.496;2023-05-10T02:39:53;10.38;;;3.28;;
69847;SDS011;57143;55.940;37.496;2023-05-10T02:42:22;9.43;;;3.15;;
69847;SDS011;57143;55.940;37.496;2023-05-10T02:44:52;8.80;;;2.80;;
69847;SDS011;57143;55.940;37.496;2023-05-10T02:47:21;8.48;;;3.58;;
69847;SDS011;57143;55.940;37.496;2023-05-10T02:49:48;9.37;;;3.17;;
69847;SDS011;57143;55.940;37.496;2023-05-10T02:52:16;10.23;;;3.03;;
69847;SDS011;57143;55.940;37.496;2023-05-10T02:54:52;8.93;;;3.33;;
69847;SDS011;57143;55.940;37.496;2023-05-10T02:57:24;9.75;;;3.17;;
69847;SDS011;57143;55.940;37.496;2023-05-10T02:59:54;8.43;;;2.78;;
69847;SDS011;57143;55.940;37.496;2023-05-10T03:02:21;8.60;;;2.50;;
69847;SDS011;57143;55.940;37.496;2023-05-10T03:04:49;7.82;;;2.72;;
69847;SDS011;57143;55.940;37.496;2023-05-10T03:07:16;9.40;;;3.10;;
69847;SDS011;57143;55.940;37.496;2023-05-10T03:09:46;8.63;;;2.45;;
69847;SDS011;57143;55.940;37.496;2023-05-10T03:12:15;7.45;;;2.50;;
69847;SDS011;57143;55.940;37.496;2023-05-10T03:14:56;10.27;;;2.93;;
69847;SDS011;57143;55.940;37.496;2023-05-10T03:17:33;8.98;;;2.63;;
69847;SDS011;57143;55.940;37.496;2023-05-10T03:20:08;11.07;;;2.88;;
69847;SDS011;57143;55.940;37.496;2023-05-10T03:22:38;8.57;;;2.85;;
69847;SDS011;57143;55.940;37.496;2023-05-10T03:25:10;10.57;;;3.20;;
69847;SDS011;57143;55.940;37.496;2023-05-10T03:27:41;15.93;;;3.60;;
69847;SDS011;57143;55.940;37.496;2023-05-10T03:30:10;8.18;;;3.38;;
69847;SDS011;57143;55.940;37.496;2023-05-10T03:32:39;10.07;;;2.65;;
69847;SDS011;57143;55.940;37.496;2023-05-10T03:35:07;11.07;;;3.15;;
69847;SDS011;57143;55.940;37.496;2023-05-10T03:37:34;9.93;;;3.10;;
69847;SDS011;57143;55.940;37.496;2023-05-10T03:40:02;8.70;;;2.80;;
69847;SDS011;57143;55.940;37.496;2023-05-10T03:42:30;9.23;;;2.97;;
69847;SDS011;57143;55.940;37.496;2023-05-10T03:44:58;7.47;;;2.90;;
69847;SDS011;57143;55.940;37.496;2023-05-10T03:47:26;8.60;;;2.95;;
69847;SDS011;57143;55.940;37.496;2023-05-10T03:49:53;7.15;;;2.75;;
69847;SDS011;57143;55.940;37.496;2023-05-10T03:52:20;7.87;;;2.60;;
69847;SDS011;57143;55.940;37.496;2023-05-10T03:54:47;7.72;;;2.40;;
69847;SDS011;57143;55.940;37.496;2023-05-10T03:57:14;7.75;;;2.85;;
69847;SDS011;57143;55.940;37.496;2023-05-10T03:59:41;8.57;;;2.67;;
69847;SDS011;57143;55.940;37.496;2023-05-10T04:02:10;7.95;;;2.88;;
69847;SDS011;57143;55.940;37.496;2023-05-10T04:04:37;12.97;;;2.83;;
69847;SDS011;57143;55.940;37.496;2023-05-10T04:07:04;7.10;;;2.60;;
69847;SDS011;57143;55.940;37.496;2023-05-10T04:09:31;11.23;;;2.58;;
69847;SDS011;57143;55.940;37.496;2023-05-10T04:11:58;6.38;;;2.40;;
69847;SDS011;57143;55.940;37.496;2023-05-10T04:14:27;7.72;;;2.50;;
69847;SDS011;57143;55.940;37.496;2023-05-10T04:16:54;7.47;;;2.30;;
69847;SDS011;57143;55.940;37.496;2023-05-10T04:19:23;9.38;;;2.55;;
69847;SDS011;57143;55.940;37.496;2023-05-10T04:21:50;9.60;;;2.38;;
69847;SDS011;57143;55.940;37.496;2023-05-10T04:24:19;7.60;;;2.30;;
69847;SDS011;57143;55.940;37.496;2023-05-10T04:26:46;11.43;;;2.50;;
69847;SDS011;57143;55.940;37.496;2023-05-10T04:29:13;11.93;;;2.30;;
69847;SDS011;57143;55.940;37.496;2023-05-10T04:31:40;9.93;;;2.17;;
69847;SDS011;57143;55.940;37.496;2023-05-10T04:34:07;10.23;;;2.20;;
69847;SDS011;57143;55.940;37.496;2023-05-10T04:36:36;7.45;;;2.42;;
69847;SDS011;57143;55.940;37.496;2023-05-10T04:39:03;6.45;;;2.15;;
69847;SDS011;57143;55.940;37.496;2023-05-10T04:41:30;8.80;;;2.37;;
69847;SDS011;57143;55.940;37.496;2023-05-10T04:43:58;7.55;;;2.15;;
69847;SDS011;57143;55.940;37.496;2023-05-10T04:46:25;6.93;;;2.30;;
69847;SDS011;57143;55.940;37.496;2023-05-10T04:48:52;12.60;;;2.30;;
69847;SDS011;57143;55.940;37.496;2023-05-10T04:51:19;12.38;;;2.42;;
69847;SDS011;57143;55.940;37.496;2023-05-10T04:53:48;10.20;;;2.40;;
69847;SDS011;57143;55.940;37.496;2023-05-10T04:56:15;7.05;;;2.30;;
69847;SDS011;57143;55.940;37.496;2023-05-10T04:58:43;8.77;;;2.35;;
69847;SDS011;57143;55.940;37.496;2023-05-10T05:01:10;11.90;;;2.25;;
69847;SDS011;57143;55.940;37.496;2023-05-10T05:03:37;8.45;;;2.25;;
69847;SDS011;57143;55.940;37.496;2023-05-10T05:06:04;7.40;;;2.37;;
69847;SDS011;57143;55.940;37.496;2023-05-10T05:08:32;7.45;;;2.13;;
69847;SDS011;57143;55.940;37.496;2023-05-10T05:11:01;7.85;;;2.67;;
69847;SDS011;57143;55.940;37.496;2023-05-10T05:13:28;8.80;;;2.20;;
69847;SDS011;57143;55.940;37.496;2023-05-10T05:15:55;7.82;;;2.42;;
69847;SDS011;57143;55.940;37.496;2023-05-10T05:18:22;6.83;;;1.90;;
69847;SDS011;57143;55.940;37.496;2023-05-10T05:20:49;6.80;;;1.98;;
69847;SDS011;57143;55.940;37.496;2023-05-10T05:23:16;6.22;;;2.30;;
69847;SDS011;57143;55.940;37.496;2023-05-10T05:25:46;7.88;;;2.70;;
69847;SDS011;57143;55.940;37.496;2023-05-10T05:28:14;6.70;;;2.33;;
69847;SDS011;57143;55.940;37.496;2023-05-10T05:30:42;5.73;;;2.10;;
69847;SDS011;57143;55.940;37.496;2023-05-10T05:33:09;11.68;;;2.20;;
69847;SDS011;57143;55.940;37.496;2023-05-10T05:35:36;7.60;;;2.25;;
69847;SDS011;57143;55.940;37.496;2023-05-10T05:38:03;7.60;;;2.42;;
69847;SDS011;57143;55.940;37.496;2023-05-10T05:40:31;8.73;;;2.97;;
69847;SDS011;57143;55.940;37.496;2023-05-10T05:42:58;7.07;;;2.33;;
69847;SDS011;57143;55.940;37.496;2023-05-10T05:45:27;7.18;;;2.78;;
69847;SDS011;57143;55.940;37.496;2023-05-10T05:47:54;7.03;;;2.50;;
69847;SDS011;57143;55.940;37.496;2023-05-10T05:50:21;8.32;;;2.30;;
69847;SDS011;57143;55.940;37.496;2023-05-10T05:52:48;7.50;;;2.75;;
69847;SDS011;57143;55.940;37.496;2023-05-10T05:55:16;5.47;;;1.77;;
69847;SDS011;57143;55.940;37.496;2023-05-10T05:57:45;5.30;;;1.95;;
69847;SDS011;57143;55.940;37.496;2023-05-10T06:00:12;8.25;;;2.45;;
69847;SDS011;57143;55.940;37.496;2023-05-10T06:02:42;7.00;;;2.38;;
69847;SDS011;57143;55.940;37.496;2023-05-10T06:05:09;7.90;;;2.28;;
69847;SDS011;57143;55.940;37.496;2023-05-10T06:07:36;6.53;;;2.50;;
69847;SDS011;57143;55.940;37.496;2023-05-10T06:10:04;9.50;;;2.60;;
69847;SDS011;57143;55.940;37.496;2023-05-10T06:12:32;7.93;;;2.60;;
69847;SDS011;57143;55.940;37.496;2023-05-10T06:14:59;10.05;;;2.30;;
69847;SDS011;57143;55.940;37.496;2023-05-10T06:17:28;7.30;;;2.15;;
69847;SDS011;57143;55.940;37.496;2023-05-10T06:19:56;8.87;;;1.97;;
69847;SDS011;57143;55.940;37.496;2023-05-10T06:22:23;8.40;;;2.20;;
69847;SDS011;57143;55.940;37.496;2023-05-10T06:24:50;6.00;;;2.28;;
69847;SDS011;57143;55.940;37.496;2023-05-10T06:27:17;5.40;;;2.20;;
69847;SDS011;57143;55.940;37.496;2023-05-10T06:29:44;6.40;;;2.17;;
69847;SDS011;57143;55.940;37.496;2023-05-10T06:32:12;8.83;;;2.27;;
69847;SDS011;57143;55.940;37.496;2023-05-10T06:34:39;5.68;;;1.80;;
69847;SDS011;57143;55.940;37.496;2023-05-10T06:37:07;6.72;;;2.58;;
69847;SDS011;57143;55.940;37.496;2023-05-10T06:39:34;4.90;;;1.70;;
69847;SDS011;57143;55.940;37.496;2023-05-10T06:42:02;7.60;;;2.17;;
69847;SDS011;57143;55.940;37.496;2023-05-10T06:44:29;7.83;;;2.30;;
69847;SDS011;57143;55.940;37.496;2023-05-10T06:46:57;6.63;;;2.08;;
69847;SDS011;57143;55.940;37.496;2023-05-10T06:49:24;6.35;;;2.08;;
69847;SDS011;57143;55.940;37.496;2023-05-10T06:51:51;10.40;;;2.53;;
69847;SDS011;57143;55.940;37.496;2023-05-10T06:54:20;6.28;;;1.90;;
69847;SDS011;57143;55.940;37.496;2023-05-10T06:56:48;7.27;;;1.80;;
69847;SDS011;57143;55.940;37.496;2023-05-10T06:59:15;7.72;;;2.35;;
69847;SDS011;57143;55.940;37.496;2023-05-10T07:01:44;6.88;;;2.20;;
69847;SDS011;57143;55.940;37.496;2023-05-10T07:04:11;5.85;;;1.95;;
69847;SDS011;57143;55.940;37.496;2023-05-10T07:06:38;6.97;;;2.58;;
69847;SDS011;57143;55.940;37.496;2023-05-10T07:09:06;10.33;;;2.03;;
69847;SDS011;57143;55.940;37.496;2023-05-10T07:11:34;6.97;;;1.95;;
69847;SDS011;57143;55.940;37.496;2023-05-10T07:14:02;5.13;;;2.08;;
69847;SDS011;57143;55.940;37.496;2023-05-10T07:16:30;7.10;;;1.63;;
69847;SDS011;57143;55.940;37.496;2023-05-10T07:18:57;7.82;;;1.98;;
69847;SDS011;57143;55.940;37.496;2023-05-10T07:21:24;5.63;;;2.10;;
69847;SDS011;57143;55.940;37.496;2023-05-10T07:23:53;5.35;;;1.92;;
69847;SDS011;57143;55.940;37.496;2023-05-10T07:26:21;9.05;;;2.10;;
69847;SDS011;57143;55.940;37.496;2023-05-10T07:28:49;7.60;;;2.42;;
69847;SDS011;57143;55.940;37.496;2023-05-10T07:31:16;6.25;;;1.85;;
69847;SDS011;57143;55.940;37.496;2023-05-10T07:33:43;6.70;;;1.77;;
69847;SDS011;57143;55.940;37.496;2023-05-10T07:36:11;5.68;;;2.28;;
69847;SDS011;57143;55.940;37.496;2023-05-10T07:38:38;6.22;;;2.03;;
69847;SDS011;57143;55.940;37.496;2023-05-10T07:41:05;6.53;;;2.20;;
69847;SDS011;57143;55.940;37.496;2023-05-10T07:43:32;7.90;;;2.47;;
69847;SDS011;57143;55.940;37.496;2023-05-10T07:46:01;7.73;;;2.20;;
69847;SDS011;57143;55.940;37.496;2023-05-10T07:48:28;6.18;;;2.03;;
69847;SDS011;57143;55.940;37.496;2023-05-10T07:50:55;9.30;;;2.25;;
69847;SDS011;57143;55.940;37.496;2023-05-10T07:53:22;7.75;;;2.28;;
69847;SDS011;57143;55.940;37.496;2023-05-10T07:55:50;15.55;;;3.38;;
69847;SDS011;57143;55.940;37.496;2023-05-10T07:58:17;11.53;;;2.13;;
69847;SDS011;57143;55.940;37.496;2023-05-10T08:00:44;9.13;;;2.10;;
69847;SDS011;57143;55.940;37.496;2023-05-10T08:03:13;6.72;;;1.98;;
69847;SDS011;57143;55.940;37.496;2023-05-10T08:05:40;5.95;;;1.75;;
69847;SDS011;57143;55.940;37.496;2023-05-10T08:08:07;7.05;;;1.80;;
69847;SDS011;57143;55.940;37.496;2023-05-10T08:10:34;5.97;;;1.73;;
69847;SDS011;57143;55.940;37.496;2023-05-10T08:13:01;5.10;;;1.55;;
69847;SDS011;57143;55.940;37.496;2023-05-10T08:15:29;6.97;;;1.80;;
69847;SDS011;57143;55.940;37.496;2023-05-10T08:17:56;5.85;;;1.67;;
69847;SDS011;57143;55.940;37.496;2023-05-10T08:20:24;5.40;;;1.60;;
69847;SDS011;57143;55.940;37.496;2023-05-10T08:22:51;6.47;;;1.73;;
69847;SDS011;57143;55.940;37.496;2023-05-10T08:25:19;4.93;;;1.60;;
69847;SDS011;57143;55.940;37.496;2023-05-10T08:27:46;5.60;;;1.50;;
69847;SDS011;57143;55.940;37.496;2023-05-10T08:30:13;5.55;;;1.70;;
69847;SDS011;57143;55.940;37.496;2023-05-10T08:32:40;6.53;;;1.77;;
69847;SDS011;57143;55.940;37.496;2023-05-10T08:35:07;9.83;;;2.07;;
69847;SDS011;57143;55.940;37.496;2023-05-10T08:37:36;6.05;;;1.83;;
69847;SDS011;57143;55.940;37.496;2023-05-10T08:40:03;5.25;;;1.70;;
69847;SDS011;57143;55.940;37.496;2023-05-10T08:42:32;5.40;;;1.65;;
69847;SDS011;57143;55.940;37.496;2023-05-10T08:45:03;5.72;;;1.55;;
69847;SDS011;57143;55.940;37.496;2023-05-10T08:47:32;5.73;;;1.77;;
69847;SDS011;57143;55.940;37.496;2023-05-10T08:50:00;5.43;;;1.50;;
69847;SDS011;57143;55.940;37.496;2023-05-10T08:52:29;5.28;;;1.50;;
69847;SDS011;57143;55.940;37.496;2023-05-10T08:55:00;5.55;;;1.90;;
69847;SDS011;57143;55.940;37.496;2023-05-10T08:57:29;5.65;;;1.63;;
69847;SDS011;57143;55.940;37.496;2023-05-10T08:59:56;6.40;;;1.50;;
69847;SDS011;57143;55.940;37.496;2023-05-10T09:02:23;5.47;;;1.55;;
69847;SDS011;57143;55.940;37.496;2023-05-10T09:04:52;7.30;;;1.73;;
69847;SDS011;57143;55.940;37.496;2023-05-10T09:07:19;4.45;;;1.63;;
69847;SDS011;57143;55.940;37.496;2023-05-10T09:09:46;5.10;;;1.83;;
69847;SDS011;57143;55.940;37.496;2023-05-10T09:12:16;4.93;;;1.40;;
69847;SDS011;57143;55.940;37.496;2023-05-10T09:14:43;5.95;;;1.75;;
69847;SDS011;57143;55.940;37.496;2023-05-10T09:17:12;5.57;;;1.63;;
69847;SDS011;57143;55.940;37.496;2023-05-10T09:19:39;4.68;;;1.30;;
69847;SDS011;57143;55.940;37.496;2023-05-10T09:22:07;5.95;;;1.70;;
69847;SDS011;57143;55.940;37.496;2023-05-10T09:24:34;5.33;;;1.60;;
69847;SDS011;57143;55.940;37.496;2023-05-10T09:27:02;6.53;;;1.83;;
69847;SDS011;57143;55.940;37.496;2023-05-10T09:29:39;8.25;;;1.90;;
69847;SDS011;57143;55.940;37.496;2023-05-10T09:32:08;5.07;;;1.75;;
69847;SDS011;57143;55.940;37.496;2023-05-10T09:34:35;5.40;;;1.80;;
69847;SDS011;57143;55.940;37.496;2023-05-10T09:37:05;5.07;;;1.60;;
69847;SDS011;57143;55.940;37.496;2023-05-10T09:39:34;5.32;;;1.88;;
69847;SDS011;57143;55.940;37.496;2023-05-10T09:42:03;6.00;;;2.20;;
69847;SDS011;57143;55.940;37.496;2023-05-10T09:44:32;5.25;;;1.60;;
69847;SDS011;57143;55.940;37.496;2023-05-10T09:47:02;5.30;;;1.60;;
69847;SDS011;57143;55.940;37.496;2023-05-10T09:49:29;5.53;;;1.63;;
69847;SDS011;57143;55.940;37.496;2023-05-10T09:52:00;5.35;;;1.60;;
69847;SDS011;57143;55.940;37.496;2023-05-10T09:54:29;6.22;;;1.83;;
69847;SDS011;57143;55.940;37.496;2023-05-10T09:56:56;9.57;;;1.65;;
69847;SDS011;57143;55.940;37.496;2023-05-10T09:59:24;4.82;;;1.60;;
69847;SDS011;57143;55.940;37.496;2023-05-10T10:01:52;6.47;;;1.80;;
69847;SDS011;57143;55.940;37.496;2023-05-10T10:04:24;7.18;;;1.52;;
69847;SDS011;57143;55.940;37.496;2023-05-10T10:07:01;5.93;;;1.60;;
69847;SDS011;57143;55.940;37.496;2023-05-10T10:09:30;5.30;;;1.48;;
69847;SDS011;57143;55.940;37.496;2023-05-10T10:11:57;5.35;;;1.83;;
69847;SDS011;57143;55.940;37.496;2023-05-10T10:14:26;6.60;;;1.53;;
69847;SDS011;57143;55.940;37.496;2023-05-10T10:16:53;4.93;;;1.48;;
69847;SDS011;57143;55.940;37.496;2023-05-10T10:19:21;5.28;;;1.58;;
69847;SDS011;57143;55.940;37.496;2023-05-10T10:21:50;7.55;;;1.70;;
69847;SDS011;57143;55.940;37.496;2023-05-10T10:24:17;7.95;;;1.85;;
69847;SDS011;57143;55.940;37.496;2023-05-10T10:26:45;4.80;;;1.60;;
69847;SDS011;57143;55.940;37.496;2023-05-10T10:29:19;5.63;;;1.60;;
69847;SDS011;57143;55.940;37.496;2023-05-10T10:31:52;5.32;;;1.60;;
69847;SDS011;57143;55.940;37.496;2023-05-10T10:34:28;6.00;;;1.98;;
69847;SDS011;57143;55.940;37.496;2023-05-10T10:36:58;6.82;;;2.05;;
69847;SDS011;57143;55.940;37.496;2023-05-10T10:39:31;6.67;;;1.50;;
69847;SDS011;57143;55.940;37.496;2023-05-10T10:41:58;5.63;;;1.50;;
69847;SDS011;57143;55.940;37.496;2023-05-10T10:44:36;6.05;;;1.75;;
69847;SDS011;57143;55.940;37.496;2023-05-10T10:47:06;6.45;;;1.95;;
69847;SDS011;57143;55.940;37.496;2023-05-10T10:49:43;5.35;;;1.75;;
69847;SDS011;57143;55.940;37.496;2023-05-10T10:52:20;6.20;;;1.83;;
69847;SDS011;57143;55.940;37.496;2023-05-10T10:54:52;5.93;;;1.85;;
69847;SDS011;57143;55.940;37.496;2023-05-10T10:57:21;7.35;;;1.70;;
69847;SDS011;57143;55.940;37.496;2023-05-10T10:59:48;4.95;;;1.60;;
69847;SDS011;57143;55.940;37.496;2023-05-10T11:02:34;5.45;;;1.60;;
69847;SDS011;57143;55.940;37.496;2023-05-10T11:05:24;6.17;;;1.77;;
69847;SDS011;57143;55.940;37.496;2023-05-10T11:08:08;5.50;;;1.70;;
69847;SDS011;57143;55.940;37.496;2023-05-10T11:10:37;7.40;;;1.83;;
69847;SDS011;57143;55.940;37.496;2023-05-10T11:13:05;5.72;;;1.63;;
69847;SDS011;57143;55.940;37.496;2023-05-10T11:15:33;6.18;;;1.70;;
69847;SDS011;57143;55.940;37.496;2023-05-10T11:18:16;6.77;;;1.60;;
69847;SDS011;57143;55.940;37.496;2023-05-10T11:20:44;5.20;;;1.42;;
69847;SDS011;57143;55.940;37.496;2023-05-10T11:23:17;6.28;;;1.50;;
69847;SDS011;57143;55.940;37.496;2023-05-10T11:25:46;5.88;;;1.73;;
69847;SDS011;57143;55.940;37.496;2023-05-10T11:28:16;4.88;;;1.70;;
69847;SDS011;57143;55.940;37.496;2023-05-10T11:30:45;4.87;;;1.67;;
69847;SDS011;57143;55.940;37.496;2023-05-10T11:33:15;4.50;;;1.55;;
69847;SDS011;57143;55.940;37.496;2023-05-10T11:35:43;5.53;;;1.80;;
69847;SDS011;57143;55.940;37.496;2023-05-10T11:38:11;4.53;;;1.60;;
69847;SDS011;57143;55.940;37.496;2023-05-10T11:40:40;7.18;;;1.80;;
69847;SDS011;57143;55.940;37.496;2023-05-10T11:43:08;4.63;;;1.40;;
69847;SDS011;57143;55.940;37.496;2023-05-10T11:45:37;6.55;;;1.60;;
69847;SDS011;57143;55.940;37.496;2023-05-10T11:48:06;6.60;;;1.63;;
69847;SDS011;57143;55.940;37.496;2023-05-10T11:50:34;5.63;;;1.50;;
69847;SDS011;57143;55.940;37.496;2023-05-10T11:53:01;5.00;;;1.30;;
69847;SDS011;57143;55.940;37.496;2023-05-10T11:55:28;5.83;;;1.50;;
69847;SDS011;57143;55.940;37.496;2023-05-10T11:58:00;4.82;;;1.63;;
69847;SDS011;57143;55.940;37.496;2023-05-10T12:00:28;6.07;;;1.73;;
69847;SDS011;57143;55.940;37.496;2023-05-10T12:02:56;4.60;;;1.30;;
69847;SDS011;57143;55.940;37.496;2023-05-10T12:05:23;7.43;;;1.52;;
69847;SDS011;57143;55.940;37.496;2023-05-10T12:07:51;5.70;;;1.70;;
69847;SDS011;57143;55.940;37.496;2023-05-10T12:10:26;4.97;;;1.60;;
69847;SDS011;57143;55.940;37.496;2023-05-10T12:12:53;5.50;;;1.80;;
69847;SDS011;57143;55.940;37.496;2023-05-10T12:15:22;7.03;;;1.48;;
69847;SDS011;57143;55.940;37.496;2023-05-10T12:17:53;5.93;;;1.77;;
69847;SDS011;57143;55.940;37.496;2023-05-10T12:20:22;8.60;;;2.00;;
69847;SDS011;57143;55.940;37.496;2023-05-10T12:22:51;6.45;;;1.55;;
69847;SDS011;57143;55.940;37.496;2023-05-10T12:25:20;5.78;;;1.90;;
69847;SDS011;57143;55.940;37.496;2023-05-10T12:27:50;5.68;;;1.70;;
69847;SDS011;57143;55.940;37.496;2023-05-10T12:30:19;5.22;;;1.63;;
69847;SDS011;57143;55.940;37.496;2023-05-10T12:32:48;6.30;;;1.63;;
69847;SDS011;57143;55.940;37.496;2023-05-10T12:35:16;7.72;;;1.92;;
69847;SDS011;57143;55.940;37.496;2023-05-10T12:37:46;7.22;;;1.58;;
69847;SDS011;57143;55.940;37.496;2023-05-10T12:40:13;5.68;;;1.65;;
69847;SDS011;57143;55.940;37.496;2023-05-10T12:42:40;4.85;;;1.52;;
69847;SDS011;57143;55.940;37.496;2023-05-10T12:45:10;5.27;;;1.67;;
69847;SDS011;57143;55.940;37.496;2023-05-10T12:47:39;5.30;;;1.70;;
69847;SDS011;57143;55.940;37.496;2023-05-10T12:50:06;5.50;;;1.80;;
69847;SDS011;57143;55.940;37.496;2023-05-10T12:52:34;5.75;;;2.00;;
69847;SDS011;57143;55.940;37.496;2023-05-10T12:55:01;5.55;;;2.00;;
69847;SDS011;57143;55.940;37.496;2023-05-10T12:57:30;5.17;;;1.70;;
69847;SDS011;57143;55.940;37.496;2023-05-10T12:59:57;5.32;;;1.95;;
69847;SDS011;57143;55.940;37.496;2023-05-10T13:02:24;6.22;;;2.00;;
69847;SDS011;57143;55.940;37.496;2023-05-10T13:04:53;6.63;;;1.75;;
69847;SDS011;57143;55.940;37.496;2023-05-10T13:07:20;7.68;;;2.03;;
69847;SDS011;57143;55.940;37.496;2023-05-10T13:09:47;9.50;;;1.97;;
69847;SDS011;57143;55.940;37.496;2023-05-10T13:12:15;5.65;;;2.03;;
69847;SDS011;57143;55.940;37.496;2023-05-10T13:14:42;5.53;;;2.05;;
69847;SDS011;57143;55.940;37.496;2023-05-10T13:17:09;5.30;;;1.60;;
69847;SDS011;57143;55.940;37.496;2023-05-10T13:19:36;5.53;;;1.65;;
69847;SDS011;57143;55.940;37.496;2023-05-10T13:22:04;5.70;;;1.67;;
69847;SDS011;57143;55.940;37.496;2023-05-10T13:24:31;7.93;;;1.45;;
69847;SDS011;57143;55.940;37.496;2023-05-10T13:26:59;5.85;;;1.60;;
69847;SDS011;57143;55.940;37.496;2023-05-10T13:29:26;5.13;;;1.52;;
69847;SDS011;57143;55.940;37.496;2023-05-10T13:31:53;5.93;;;1.70;;
69847;SDS011;57143;55.940;37.496;2023-05-10T13:34:20;7.23;;;2.30;;
69847;SDS011;57143;55.940;37.496;2023-05-10T13:36:48;7.05;;;2.10;;
69847;SDS011;57143;55.940;37.496;2023-05-10T13:39:16;4.88;;;1.80;;
69847;SDS011;57143;55.940;37.496;2023-05-10T13:41:43;7.10;;;2.28;;
69847;SDS011;57143;55.940;37.496;2023-05-10T13:44:11;8.70;;;1.80;;
69847;SDS011;57143;55.940;37.496;2023-05-10T13:46:39;6.63;;;1.60;;
69847;SDS011;57143;55.940;37.496;2023-05-10T13:49:08;7.28;;;1.60;;
69847;SDS011;57143;55.940;37.496;2023-05-10T13:51:35;6.28;;;1.77;;
69847;SDS011;57143;55.940;37.496;2023-05-10T13:54:03;5.75;;;1.65;;
69847;SDS011;57143;55.940;37.496;2023-05-10T13:56:31;6.50;;;1.65;;
69847;SDS011;57143;55.940;37.496;2023-05-10T13:58:58;5.77;;;1.93;;
69847;SDS011;57143;55.940;37.496;2023-05-10T14:01:26;5.38;;;1.90;;
69847;SDS011;57143;55.940;37.496;2023-05-10T14:03:53;5.63;;;2.00;;
69847;SDS011;57143;55.940;37.496;2023-05-10T14:06:20;7.57;;;2.05;;
69847;SDS011;57143;55.940;37.496;2023-05-10T14:08:47;7.47;;;2.40;;
69847;SDS011;57143;55.940;37.496;2023-05-10T14:11:14;6.00;;;1.90;;
69847;SDS011;57143;55.940;37.496;2023-05-10T14:13:43;9.68;;;1.80;;
69847;SDS011;57143;55.940;37.496;2023-05-10T14:16:10;10.30;;;1.90;;
69847;SDS011;57143;55.940;37.496;2023-05-10T14:18:39;6.25;;;1.30;;
69847;SDS011;57143;55.940;37.496;2023-05-10T14:21:07;4.70;;;1.58;;
69847;SDS011;57143;55.940;37.496;2023-05-10T14:23:34;6.07;;;1.77;;
69847;SDS011;57143;55.940;37.496;2023-05-10T14:26:01;7.20;;;2.00;;
69847;SDS011;57143;55.940;37.496;2023-05-10T14:28:28;6.43;;;1.67;;
69847;SDS011;57143;55.940;37.496;2023-05-10T14:30:56;6.57;;;1.88;;
69847;SDS011;57143;55.940;37.496;2023-05-10T14:33:24;11.68;;;5.25;;
69847;SDS011;57143;55.940;37.496;2023-05-10T14:35:51;6.53;;;2.43;;
69847;SDS011;57143;55.940;37.496;2023-05-10T14:38:18;6.55;;;2.00;;
69847;SDS011;57143;55.940;37.496;2023-05-10T14:40:45;6.63;;;2.10;;
69847;SDS011;57143;55.940;37.496;2023-05-10T14:43:12;6.78;;;2.40;;
69847;SDS011;57143;55.940;37.496;2023-05-10T14:45:39;6.90;;;2.00;;